Portada
METAR-TAF:

METAR-TAF

Aeroports :

Mardin, Turquia

latitud: 37-13-58N, longitud: 40-38-26E, altitud: 527 m

Observació

L'informe es va fer fa 55 minuts, a les 05:50 UTC
Vent calma
Temperatura 6°C
Humitat 75%
Pressió 1018 hPa
Visibilitat 10 km o més
Escasses núvols a una alçada de 4000 ft
Núvols disperses a una alçada de 10000 ft
Cel ennuvolat a una alçada de 18000 ft

METAR: LTCR 290550Z 00000KT 9999 FEW040 SCT100 BKN180 06/02 Q1018

Hora: 09:45 (06:45 UTC)

Pronòstic

L'informe es va fer fa 2 hores i 5 minuts, a les 04:40 UTC
Pronòstic vàlid del 29 a les 06 UTC al 29 a les 15 UTC
Vent 2 kt amb direcció variable
Visibilitat 10 km o més
Escasses núvols a una alçada de 4000 ft
Núvols disperses a una alçada de 10000 ft

TAF: LTCR 290440Z 2906/2915 VRB02KT 9999 FEW040 SCT100

Observacions i pronòstics meteorològics de més de 4000 aeroports (METAR i TAF).

Les estacions disponibles són els punts grocs i vermells al mapa.

Posi el ratolí al punt desitjat per veure el nom de l'estació.

Feu clic per veure les observacions i els pronòstics meteorològics.

Per canviar el mapa: feu clic els botons verds amb una creu de color negre per apropar; al botó verd amb un guió per allunyar la imatge; o en les fletxes verdes per a mapes adjacents.


METAR-TAF: